weather.gov     
National Weather Service

Terminal Aerodrome Forecast
NWS Homepage
This page is being discontinued on March 12, 2014.
The same data is available at this site. Please update your bookmarks.
Thank you, and we apologize for the inconvenience.
Please send an email to SR-SRH.Webmaster@noaa.gov with any concerns.


Current Version
Previous Version:    01  02  03  04  05  06  07  08  09  10  11  12  13  14  15  16  17  18  19  20  21  22  23  24  25  26  27  28  29  30  
   31  32  33  34  35  36  37  38  39  40  41  42  43  44  45  
[Printable]
651
FTUS45 KGJT 251735
TAFDRO
TAF
KDRO 251735Z 2518/2618 28006KT P6SM VCTS SCT080CB BKN110
     FM252000 29012G22KT P6SM VCTS SCT080CB BKN110
      TEMPO 2520/2524 VRB20G30KT -TSRA FEW060 BKN080CB
     FM260200 34007KT P6SM VCTS BKN090CB BKN120
     FM260500 31005KT P6SM SCT120=




651
FTUS45 KGJT 251735
TAFDRO
TAF
KDRO 251735Z 2518/2618 28006KT P6SM VCTS SCT080CB BKN110
     FM252000 29012G22KT P6SM VCTS SCT080CB BKN110
      TEMPO 2520/2524 VRB20G30KT -TSRA FEW060 BKN080CB
     FM260200 34007KT P6SM VCTS BKN090CB BKN120
     FM260500 31005KT P6SM SCT120=


U.S. Dept. of Commerce
NOAA National Weather Service
1325 East West Highway
Silver Spring, MD 20910
E-mail: w-nws.webmaster@noaa.gov
Page last modified: May 16, 2007
NATIONAL WEATHER SERVICE: for Safety, for Work, for Fun - FOR LIFE